Time;durP1;ratioP1;P1;durP2;ratioP2;P2;SDS_P1;SDS_P2;PMS_P1;PMS_P2;Temp;Humidity;BMP_temperature;BMP_pressure;BME280_temperature;BME280_humidity;BME280_pressure;Samples;Min_cycle;Max_cycle;Signal;HPM_P1;HPM_P2
2021/12/31 00:00:29;;;;;;;;;;;14.20;99.90;;;;;;4994698;28;19934;-83
2021/12/31 00:02:59;;;;;;;;;;;14.10;99.90;;;;;;5024422;28;19941;-85
2021/12/31 00:05:30;;;;;;;;;;;14.40;99.90;;;;;;5022301;28;19933;-83
2021/12/31 00:08:00;;;;;;;;;;;14.10;99.90;;;;;;5025980;28;19930;-80
2021/12/31 00:10:32;;;;;;;;;;;14.20;99.90;;;;;;5023524;28;19933;-83
2021/12/31 00:13:01;;;;;;;;;;;14.10;99.90;;;;;;5027047;28;19925;-82
2021/12/31 00:15:30;;;;;;;;;;;14.10;99.90;;;;;;5006863;28;19936;-82
2021/12/31 00:18:00;;;;;;;;;;;14.10;99.90;;;;;;5026279;28;20309;-82
2021/12/31 00:20:29;;;;;;;;;;;14.10;99.90;;;;;;5025339;28;20399;-83
2021/12/31 00:23:11;;;;;;;;;;;14.10;99.90;;;;;;5008783;28;19925;-81
2021/12/31 00:25:41;;;;;;;;;;;14.40;99.90;;;;;;5006022;28;19933;-82
2021/12/31 00:28:31;;;;;;;;;;;13.30;99.90;;;;;;5025753;28;19931;-83
2021/12/31 00:31:01;;;;;;;;;;;14.00;99.90;;;;;;5026745;28;19940;-82
2021/12/31 00:33:54;;;;;;;;;;;14.00;99.90;;;;;;5026314;28;19932;-83
2021/12/31 00:36:22;;;;;;;;;;;14.10;99.90;;;;;;5027373;28;19929;-83
2021/12/31 00:38:53;;;;;;;;;;;14.00;99.90;;;;;;5011708;28;20401;-85
2021/12/31 00:41:22;;;;;;;;;;;14.00;99.90;;;;;;5012072;28;19936;-82
2021/12/31 00:44:15;;;;;;;;;;;14.00;99.90;;;;;;5026837;28;19925;-82
2021/12/31 00:46:44;;;;;;;;;;;14.00;99.90;;;;;;5026356;28;19936;-81
2021/12/31 00:49:13;;;;;;;;;;;13.90;99.90;;;;;;5025106;28;19937;-82
2021/12/31 00:51:41;;;;;;;;;;;14.00;99.90;;;;;;5024637;28;19936;-83
2021/12/31 00:54:10;;;;;;;;;;;13.40;99.90;;;;;;4992245;28;19937;-82
2021/12/31 00:56:39;;;;;;;;;;;13.90;99.90;;;;;;5025338;28;19933;-81
2021/12/31 00:59:09;;;;;;;;;;;13.80;99.90;;;;;;5025509;28;19929;-82
2021/12/31 01:01:37;;;;;;;;;;;14.20;99.90;;;;;;5026719;28;20391;-81
2021/12/31 01:04:08;;;;;;;;;;;13.80;99.90;;;;;;4996639;28;19917;-83
2021/12/31 01:06:38;;;;;;;;;;;13.70;99.90;;;;;;5012795;28;19933;-84
2021/12/31 01:09:09;;;;;;;;;;;14.50;99.90;;;;;;5029657;28;19921;-81
2021/12/31 01:11:43;;;;;;;;;;;13.60;99.90;;;;;;5013015;28;19935;-82
2021/12/31 01:14:21;;;;;;;;;;;13.70;99.90;;;;;;4996582;28;19929;-81
2021/12/31 01:16:57;;;;;;;;;;;13.70;99.90;;;;;;5026724;28;19925;-82
2021/12/31 01:22:01;;;;;;;;;;;13.60;99.90;;;;;;5008368;28;19925;-81
2021/12/31 01:24:30;;;;;;;;;;;13.60;99.90;;;;;;5025769;28;19925;-81
2021/12/31 01:27:00;;;;;;;;;;;13.60;99.90;;;;;;5008716;28;19929;-83
2021/12/31 01:29:32;;;;;;;;;;;13.60;99.90;;;;;;4992401;28;19925;-81
2021/12/31 01:32:02;;;;;;;;;;;13.60;99.90;;;;;;5025825;28;19936;-83
2021/12/31 01:34:33;;;;;;;;;;;12.60;99.90;;;;;;5024578;28;19929;-82
2021/12/31 01:37:02;;;;;;;;;;;13.50;99.90;;;;;;5023957;28;19932;-81
2021/12/31 01:39:33;;;;;;;;;;;11.90;99.90;;;;;;5024515;28;19933;-82
2021/12/31 01:42:32;;;;;;;;;;;13.60;99.90;;;;;;5010874;28;19937;-82
2021/12/31 01:45:11;;;;;;;;;;;13.70;99.90;;;;;;4977335;28;19926;-81
2021/12/31 01:48:05;;;;;;;;;;;13.50;99.90;;;;;;5025276;28;19936;-81
2021/12/31 01:50:45;;;;;;;;;;;13.50;99.90;;;;;;5007594;28;19932;-82
2021/12/31 01:53:16;;;;;;;;;;;13.50;99.90;;;;;;5024793;28;19932;-81
2021/12/31 01:55:46;;;;;;;;;;;13.50;99.90;;;;;;5027040;28;19925;-82
2021/12/31 01:58:16;;;;;;;;;;;13.50;99.90;;;;;;5029256;28;19925;-83
2021/12/31 02:00:48;;;;;;;;;;;13.50;99.90;;;;;;4993190;28;19929;-83
2021/12/31 02:03:19;;;;;;;;;;;13.50;99.90;;;;;;5025578;28;19985;-81
2021/12/31 02:05:52;;;;;;;;;;;13.60;99.90;;;;;;4991192;28;19926;-81
2021/12/31 02:08:22;;;;;;;;;;;13.50;99.90;;;;;;4992079;28;19937;-82
2021/12/31 02:10:50;;;;;;;;;;;13.60;99.90;;;;;;5003518;28;19926;-82
2021/12/31 02:13:20;;;;;;;;;;;13.60;99.90;;;;;;5005808;28;19937;-81
2021/12/31 02:15:50;;;;;;;;;;;15.10;99.90;;;;;;4991707;28;20290;-81
2021/12/31 02:18:19;;;;;;;;;;;13.60;99.90;;;;;;5006467;28;20358;-82
2021/12/31 02:20:49;;;;;;;;;;;13.70;99.90;;;;;;5040062;28;19931;-82
2021/12/31 02:23:24;;;;;;;;;;;11.90;99.90;;;;;;5019502;28;19925;-82
2021/12/31 02:25:56;;;;;;;;;;;13.60;99.90;;;;;;4992067;28;19929;-82
2021/12/31 02:28:29;;;;;;;;;;;13.60;99.90;;;;;;5008709;28;19935;-82
2021/12/31 02:31:03;;;;;;;;;;;14.90;99.90;;;;;;5008559;28;19925;-84
2021/12/31 02:33:32;;;;;;;;;;;13.60;99.90;;;;;;5027162;28;19936;-83
2021/12/31 02:36:01;;;;;;;;;;;12.80;99.90;;;;;;4990514;28;19932;-83
2021/12/31 02:38:30;;;;;;;;;;;13.60;99.90;;;;;;5024084;28;19941;-81
2021/12/31 02:40:59;;;;;;;;;;;13.50;99.90;;;;;;5022790;28;19926;-82
2021/12/31 02:43:29;;;;;;;;;;;14.70;99.90;;;;;;5023926;28;19929;-81
2021/12/31 02:46:00;;;;;;;;;;;13.50;99.90;;;;;;5014264;28;19930;-81
2021/12/31 02:48:29;;;;;;;;;;;13.50;99.90;;;;;;5006284;28;19929;-81
2021/12/31 02:51:00;;;;;;;;;;;13.50;99.90;;;;;;5006212;28;19930;-83
2021/12/31 02:53:31;;;;;;;;;;;13.50;99.90;;;;;;5006470;28;19929;-84
2021/12/31 02:56:04;;;;;;;;;;;13.40;99.90;;;;;;5012717;28;19929;-81
2021/12/31 02:58:34;;;;;;;;;;;13.50;99.90;;;;;;5011747;28;19933;-81
2021/12/31 03:01:04;;;;;;;;;;;13.50;99.90;;;;;;5026590;28;19932;-82
2021/12/31 03:03:35;;;;;;;;;;;13.30;99.90;;;;;;5008450;28;19926;-81
2021/12/31 03:06:06;;;;;;;;;;;13.60;99.90;;;;;;4993224;28;19935;-81
2021/12/31 03:08:45;;;;;;;;;;;13.60;99.90;;;;;;5008135;28;19930;-81
2021/12/31 03:11:14;;;;;;;;;;;13.60;99.90;;;;;;4990929;28;19929;-84
2021/12/31 03:13:43;;;;;;;;;;;12.60;99.90;;;;;;5007450;28;19936;-81
2021/12/31 03:16:15;;;;;;;;;;;13.40;99.90;;;;;;5008480;28;19992;-81
2021/12/31 03:18:44;;;;;;;;;;;13.70;99.90;;;;;;5007767;28;19937;-81
2021/12/31 03:21:20;;;;;;;;;;;13.50;99.90;;;;;;5004361;28;19926;-81
2021/12/31 03:23:50;;;;;;;;;;;13.50;99.90;;;;;;4989361;28;19933;-81
2021/12/31 03:26:21;;;;;;;;;;;13.50;99.90;;;;;;5000750;28;19929;-85
2021/12/31 03:28:51;;;;;;;;;;;13.50;99.90;;;;;;4994531;28;19929;-83
2021/12/31 03:31:21;;;;;;;;;;;13.60;99.90;;;;;;5028469;28;19925;-82
2021/12/31 03:33:50;;;;;;;;;;;14.20;99.90;;;;;;5029222;28;20000;-81
2021/12/31 03:36:21;;;;;;;;;;;13.50;99.90;;;;;;5031178;28;19929;-81
2021/12/31 03:38:51;;;;;;;;;;;13.60;99.90;;;;;;4998692;28;19926;-81
2021/12/31 03:41:20;;;;;;;;;;;13.50;99.90;;;;;;5030308;28;19936;-81
2021/12/31 03:43:50;;;;;;;;;;;13.40;99.90;;;;;;5031880;28;19936;-82
2021/12/31 03:46:19;;;;;;;;;;;13.50;99.90;;;;;;4956220;28;20415;-82
2021/12/31 03:48:53;;;;;;;;;;;13.50;99.90;;;;;;4994279;28;20310;-83
2021/12/31 03:51:21;;;;;;;;;;;13.60;99.90;;;;;;5006852;28;19926;-82
2021/12/31 03:53:53;;;;;;;;;;;13.50;99.90;;;;;;5000852;28;19930;-83
2021/12/31 03:56:24;;;;;;;;;;;13.50;99.90;;;;;;4997397;28;19926;-82
2021/12/31 03:58:55;;;;;;;;;;;14.00;99.90;;;;;;4992407;28;19936;-82
2021/12/31 04:01:24;;;;;;;;;;;13.50;99.90;;;;;;4991958;28;19926;-81
2021/12/31 04:03:53;;;;;;;;;;;13.50;99.90;;;;;;4988733;28;19934;-81
2021/12/31 04:06:21;;;;;;;;;;;13.60;99.90;;;;;;4989018;28;19936;-82
2021/12/31 04:08:52;;;;;;;;;;;13.50;99.90;;;;;;4999615;28;19937;-81
2021/12/31 04:11:19;;;;;;;;;;;13.50;99.90;;;;;;4983528;28;19933;-82
2021/12/31 04:13:48;;;;;;;;;;;13.50;99.90;;;;;;4968786;29;19927;-83
2021/12/31 04:16:18;;;;;;;;;;;13.40;99.90;;;;;;4971453;28;19960;-81
2021/12/31 04:18:48;;;;;;;;;;;13.50;99.90;;;;;;4969276;28;20450;-81
2021/12/31 04:21:22;;;;;;;;;;;13.50;99.90;;;;;;4968131;29;19945;-81
2021/12/31 04:24:04;;;;;;;;;;;13.70;99.90;;;;;;4983706;28;19933;-81
2021/12/31 04:26:34;;;;;;;;;;;13.50;99.90;;;;;;4978252;28;19929;-82
2021/12/31 04:29:03;;;;;;;;;;;13.30;99.90;;;;;;4986127;28;20263;-81
2021/12/31 04:31:34;;;;;;;;;;;13.80;99.90;;;;;;4987724;28;19930;-82
2021/12/31 04:34:05;;;;;;;;;;;13.70;99.90;;;;;;4979416;28;19936;-81
2021/12/31 04:36:35;;;;;;;;;;;13.50;99.90;;;;;;4997462;28;19945;-82
2021/12/31 04:39:04;;;;;;;;;;;13.50;99.90;;;;;;4988554;28;19930;-83
2021/12/31 04:41:32;;;;;;;;;;;13.40;99.90;;;;;;4987100;28;19941;-81
2021/12/31 04:44:02;;;;;;;;;;;13.40;99.90;;;;;;4971681;28;19930;-83
2021/12/31 04:46:30;;;;;;;;;;;13.40;99.90;;;;;;5011820;28;19933;-82
2021/12/31 04:48:58;;;;;;;;;;;13.40;99.90;;;;;;4994033;28;19930;-85
2021/12/31 04:51:28;;;;;;;;;;;13.40;99.90;;;;;;4968640;29;19926;-82
2021/12/31 04:53:56;;;;;;;;;;;13.40;99.90;;;;;;4968155;29;19926;-82
2021/12/31 04:56:25;;;;;;;;;;;13.40;99.90;;;;;;4979690;28;19930;-83
2021/12/31 04:58:54;;;;;;;;;;;13.90;99.90;;;;;;4991694;28;19926;-82
2021/12/31 05:01:24;;;;;;;;;;;13.40;99.90;;;;;;4988541;28;19932;-81
2021/12/31 05:03:52;;;;;;;;;;;13.40;99.90;;;;;;4989041;28;19926;-82
2021/12/31 05:06:21;;;;;;;;;;;13.40;99.90;;;;;;4989131;28;19936;-83
2021/12/31 05:08:51;;;;;;;;;;;13.40;99.90;;;;;;4988244;28;19933;-81
2021/12/31 05:11:20;;;;;;;;;;;13.50;99.90;;;;;;4988305;28;19930;-83
2021/12/31 05:13:48;;;;;;;;;;;13.40;99.90;;;;;;5006232;28;19930;-83
2021/12/31 05:16:17;;;;;;;;;;;13.50;99.90;;;;;;4987968;28;19926;-85
2021/12/31 05:18:45;;;;;;;;;;;13.30;99.90;;;;;;4987472;28;19937;-82
2021/12/31 05:21:18;;;;;;;;;;;13.40;99.90;;;;;;4990517;28;19926;-83
2021/12/31 05:23:47;;;;;;;;;;;13.40;99.90;;;;;;4990339;28;19926;-84
2021/12/31 05:26:15;;;;;;;;;;;13.40;99.90;;;;;;4990237;28;19936;-82
2021/12/31 05:28:43;;;;;;;;;;;13.30;99.90;;;;;;4977585;28;19932;-82
2021/12/31 05:31:12;;;;;;;;;;;13.30;99.90;;;;;;4990951;28;19930;-81
2021/12/31 05:33:43;;;;;;;;;;;13.30;99.90;;;;;;4986907;28;19927;-82
2021/12/31 05:36:12;;;;;;;;;;;13.40;99.90;;;;;;4997066;28;19926;-82
2021/12/31 05:38:41;;;;;;;;;;;13.30;99.90;;;;;;4962717;29;19932;-80
2021/12/31 05:41:14;;;;;;;;;;;13.40;99.90;;;;;;4950792;29;19988;-82
2021/12/31 05:43:43;;;;;;;;;;;13.30;99.90;;;;;;4966088;29;19926;-82
2021/12/31 05:46:11;;;;;;;;;;;13.30;99.90;;;;;;4996680;28;19930;-81
2021/12/31 05:48:41;;;;;;;;;;;13.40;99.90;;;;;;5000215;28;19926;-83
2021/12/31 05:51:13;;;;;;;;;;;13.40;99.90;;;;;;4984094;28;19933;-81
2021/12/31 05:53:44;;;;;;;;;;;13.30;99.90;;;;;;4984366;28;19940;-81
2021/12/31 05:56:14;;;;;;;;;;;13.30;99.90;;;;;;4995117;28;19926;-81
2021/12/31 05:58:42;;;;;;;;;;;13.30;99.90;;;;;;4985135;28;19926;-81
2021/12/31 06:01:14;;;;;;;;;;;13.30;99.90;;;;;;4968654;28;19926;-81
2021/12/31 06:03:44;;;;;;;;;;;13.40;99.90;;;;;;4983812;28;19930;-81
2021/12/31 06:06:14;;;;;;;;;;;13.40;99.90;;;;;;4967003;28;20343;-82
2021/12/31 06:08:42;;;;;;;;;;;13.30;99.90;;;;;;4983539;28;19930;-82
2021/12/31 06:11:12;;;;;;;;;;;13.30;99.90;;;;;;4997593;28;19930;-81
2021/12/31 06:13:43;;;;;;;;;;;13.30;99.90;;;;;;4982836;28;20532;-82
2021/12/31 06:16:13;;;;;;;;;;;13.30;99.90;;;;;;4984538;28;19926;-81
2021/12/31 06:18:41;;;;;;;;;;;13.50;99.90;;;;;;4982124;28;19926;-82
2021/12/31 06:21:09;;;;;;;;;;;13.40;99.90;;;;;;4999767;28;19930;-82
2021/12/31 06:23:39;;;;;;;;;;;13.30;99.90;;;;;;4984589;28;19926;-81
2021/12/31 06:26:28;;;;;;;;;;;13.40;99.90;;;;;;4985576;28;19926;-82
2021/12/31 06:28:56;;;;;;;;;;;13.30;99.90;;;;;;4984492;28;19937;-82
2021/12/31 06:31:26;;;;;;;;;;;13.30;99.90;;;;;;4984148;28;19930;-83
2021/12/31 06:33:55;;;;;;;;;;;13.40;99.90;;;;;;4968987;28;19926;-81
2021/12/31 06:36:24;;;;;;;;;;;13.40;99.90;;;;;;4968954;28;19926;-82
2021/12/31 06:38:57;;;;;;;;;;;13.40;99.90;;;;;;4984803;28;19932;-82
2021/12/31 06:41:27;;;;;;;;;;;12.70;99.90;;;;;;5000493;28;19925;-84
2021/12/31 06:43:56;;;;;;;;;;;13.40;99.90;;;;;;4986599;28;19926;-83
2021/12/31 06:46:25;;;;;;;;;;;13.40;99.90;;;;;;4971875;28;19930;-84
2021/12/31 06:48:53;;;;;;;;;;;13.40;99.90;;;;;;5010676;28;19925;-82
2021/12/31 06:51:22;;;;;;;;;;;13.30;99.90;;;;;;4990906;28;19929;-81
2021/12/31 06:53:50;;;;;;;;;;;13.40;99.90;;;;;;5021124;28;19925;-81
2021/12/31 06:56:19;;;;;;;;;;;13.50;99.90;;;;;;5014171;28;19933;-81
2021/12/31 06:58:47;;;;;;;;;;;13.40;99.90;;;;;;5004534;28;20317;-81
2021/12/31 07:01:16;;;;;;;;;;;13.50;99.90;;;;;;5006684;28;19941;-81
2021/12/31 07:03:44;;;;;;;;;;;13.40;99.90;;;;;;5002160;28;19937;-81
2021/12/31 07:06:12;;;;;;;;;;;13.40;99.90;;;;;;5004970;28;19940;-81
2021/12/31 07:08:40;;;;;;;;;;;13.50;99.90;;;;;;4998380;28;19926;-83
2021/12/31 07:11:11;;;;;;;;;;;13.60;99.90;;;;;;4993088;28;19934;-82
2021/12/31 07:13:41;;;;;;;;;;;13.60;99.90;;;;;;4992749;28;19941;-83
2021/12/31 07:16:09;;;;;;;;;;;13.50;99.90;;;;;;5003697;28;20311;-82
2021/12/31 07:18:38;;;;;;;;;;;13.50;99.90;;;;;;5004780;28;19922;-82
2021/12/31 07:21:07;;;;;;;;;;;13.60;99.90;;;;;;5023383;28;19926;-82
2021/12/31 07:23:36;;;;;;;;;;;13.40;99.90;;;;;;5006298;28;19930;-83
2021/12/31 07:26:04;;;;;;;;;;;13.50;99.90;;;;;;5005610;28;19926;-83
2021/12/31 07:28:37;;;;;;;;;;;13.40;99.90;;;;;;5009723;28;20303;-81
2021/12/31 07:31:14;;;;;;;;;;;13.40;99.90;;;;;;5001542;28;19933;-81
2021/12/31 07:33:44;;;;;;;;;;;13.50;99.90;;;;;;4993585;28;19930;-82
2021/12/31 07:36:19;;;;;;;;;;;13.40;99.90;;;;;;5023111;23;19936;-90
2021/12/31 07:39:06;;;;;;;;;;;13.30;99.90;;;;;;4990340;28;19913;-89
2021/12/31 07:41:54;;;;;;;;;;;13.40;99.90;;;;;;4990433;28;19925;-89
2021/12/31 07:44:38;;;;;;;;;;;13.40;99.90;;;;;;5005243;28;20297;-90
2021/12/31 07:47:07;;;;;;;;;;;13.50;99.90;;;;;;5004028;28;19937;-90
2021/12/31 07:49:38;;;;;;;;;;;13.40;99.90;;;;;;5003056;28;20051;-91
2021/12/31 07:52:10;;;;;;;;;;;13.40;99.90;;;;;;4989526;28;19940;-89
2021/12/31 07:54:39;;;;;;;;;;;13.50;99.90;;;;;;4987093;28;19937;-90
2021/12/31 07:57:09;;;;;;;;;;;13.40;99.90;;;;;;5004453;28;19940;-90
2021/12/31 07:59:36;;;;;;;;;;;13.50;99.90;;;;;;5003336;28;19933;-91
2021/12/31 08:02:04;;;;;;;;;;;13.40;99.90;;;;;;4985657;28;20308;-90
2021/12/31 08:04:33;;;;;;;;;;;13.30;99.90;;;;;;4991583;28;19933;-90
2021/12/31 08:07:01;;;;;;;;;;;13.70;99.90;;;;;;4987114;28;19936;-91
2021/12/31 08:09:29;;;;;;;;;;;13.30;99.90;;;;;;4994256;28;19929;-91
2021/12/31 08:12:13;;;;;;;;;;;13.40;99.90;;;;;;5010137;28;19936;-92
2021/12/31 08:14:46;;;;;;;;;;;13.30;99.90;;;;;;4995140;28;19925;-92
2021/12/31 08:17:17;;;;;;;;;;;13.20;99.90;;;;;;4993424;28;19929;-90
2021/12/31 08:20:02;;;;;;;;;;;13.20;99.90;;;;;;5013313;28;19926;-91
2021/12/31 08:22:40;;;;;;;;;;;13.20;99.90;;;;;;4993564;28;19936;-91
2021/12/31 08:25:10;;;;;;;;;;;13.10;99.90;;;;;;4995778;28;19926;-92
2021/12/31 08:27:43;;;;;;;;;;;13.10;99.90;;;;;;5031770;28;19925;-90
2021/12/31 08:33:39;;;;;;;;;;;13.00;99.90;;;;;;5027016;28;19931;-91
2021/12/31 08:36:09;;;;;;;;;;;13.00;99.90;;;;;;5021407;28;19940;-89
2021/12/31 08:38:40;;;;;;;;;;;13.00;99.90;;;;;;4978264;28;19934;-90
2021/12/31 08:41:08;;;;;;;;;;;13.10;99.90;;;;;;5000051;28;19930;-91
2021/12/31 08:43:56;;;;;;;;;;;13.00;99.90;;;;;;5002741;28;19925;-91
2021/12/31 08:46:30;;;;;;;;;;;13.00;99.90;;;;;;5016397;28;19934;-90
2021/12/31 08:48:58;;;;;;;;;;;13.00;99.90;;;;;;5019921;28;19933;-90
2021/12/31 08:51:27;;;;;;;;;;;12.90;99.90;;;;;;4999694;28;20055;-91
2021/12/31 08:53:57;;;;;;;;;;;13.00;99.90;;;;;;4981423;28;19926;-90
2021/12/31 08:56:25;;;;;;;;;;;11.60;99.90;;;;;;4995480;28;19926;-90
2021/12/31 08:58:53;;;;;;;;;;;13.00;99.90;;;;;;4997369;28;19932;-91
2021/12/31 09:01:21;;;;;;;;;;;13.10;99.90;;;;;;5013795;28;19930;-90
2021/12/31 09:03:49;;;;;;;;;;;13.00;99.90;;;;;;4996940;28;19930;-91
2021/12/31 09:06:18;;;;;;;;;;;13.00;99.90;;;;;;4999276;28;19929;-91
2021/12/31 09:08:46;;;;;;;;;;;13.00;99.90;;;;;;4998878;28;20345;-90
2021/12/31 09:11:14;;;;;;;;;;;13.00;99.90;;;;;;5001029;28;19925;-90
2021/12/31 09:13:43;;;;;;;;;;;13.00;99.90;;;;;;5009517;28;19932;-90
2021/12/31 09:16:11;;;;;;;;;;;13.00;99.90;;;;;;5000922;28;20510;-91
2021/12/31 09:18:39;;;;;;;;;;;13.10;99.90;;;;;;5009734;28;19946;-91
2021/12/31 09:21:07;;;;;;;;;;;13.10;99.90;;;;;;5013695;28;19925;-91
2021/12/31 09:23:35;;;;;;;;;;;13.10;99.90;;;;;;5013722;28;19914;-91
2021/12/31 09:26:06;;;;;;;;;;;13.20;99.90;;;;;;5014921;28;19925;-91
2021/12/31 09:28:34;;;;;;;;;;;13.10;99.90;;;;;;4991651;28;19926;-92
2021/12/31 09:31:10;;;;;;;;;;;13.10;99.90;;;;;;5016459;28;19937;-91
2021/12/31 09:33:39;;;;;;;;;;;13.10;99.90;;;;;;5024967;28;19926;-92
2021/12/31 09:36:10;;;;;;;;;;;13.10;99.90;;;;;;5016259;28;19932;-91
2021/12/31 09:38:38;;;;;;;;;;;13.20;99.90;;;;;;4994348;28;19933;-91
2021/12/31 09:41:05;;;;;;;;;;;13.10;99.90;;;;;;4995139;28;19945;-92
2021/12/31 09:43:38;;;;;;;;;;;13.20;99.90;;;;;;5006352;28;19933;-91
2021/12/31 09:46:11;;;;;;;;;;;13.20;99.90;;;;;;5011732;28;19936;-90
2021/12/31 09:48:44;;;;;;;;;;;13.30;99.90;;;;;;5015904;28;19940;-90
2021/12/31 09:51:14;;;;;;;;;;;13.20;99.90;;;;;;5008548;28;20296;-91
2021/12/31 09:53:45;;;;;;;;;;;13.30;99.90;;;;;;5003148;28;19925;-91
2021/12/31 09:56:40;;;;;;;;;;;13.30;99.90;;;;;;5028001;28;20308;-91
2021/12/31 09:59:12;;;;;;;;;;;13.40;99.90;;;;;;5037903;28;19936;-92
2021/12/31 10:01:43;;;;;;;;;;;13.40;99.90;;;;;;5010030;28;19934;-91
2021/12/31 10:04:13;;;;;;;;;;;13.40;99.90;;;;;;5003604;28;20041;-92
2021/12/31 10:07:20;;;;;;;;;;;13.20;99.90;;;;;;5025418;22;19925;-84
2021/12/31 10:10:07;;;;;;;;;;;12.70;99.90;;;;;;4984076;28;19925;-81
2021/12/31 10:12:42;;;;;;;;;;;13.50;99.90;;;;;;4969242;28;20423;-82
2021/12/31 10:15:13;;;;;;;;;;;13.50;99.90;;;;;;4982064;28;19929;-81
2021/12/31 10:17:40;;;;;;;;;;;13.50;99.90;;;;;;4982956;28;19929;-82
2021/12/31 10:20:08;;;;;;;;;;;13.50;99.90;;;;;;4984664;28;19934;-82
2021/12/31 10:22:36;;;;;;;;;;;13.50;99.90;;;;;;4963344;28;19926;-80
2021/12/31 10:25:15;;;;;;;;;;;13.50;99.90;;;;;;4997866;28;20635;-83
2021/12/31 10:27:43;;;;;;;;;;;13.60;99.90;;;;;;4995864;28;19925;-83
2021/12/31 10:30:11;;;;;;;;;;;13.60;99.90;;;;;;5000276;28;19929;-82
2021/12/31 10:32:42;;;;;;;;;;;13.60;99.90;;;;;;5000684;28;19933;-78
2021/12/31 10:35:11;;;;;;;;;;;13.70;99.90;;;;;;4985686;28;19941;-81
2021/12/31 10:38:01;;;;;;;;;;;14.00;99.90;;;;;;4985097;28;19941;-84
2021/12/31 10:40:39;;;;;;;;;;;13.80;99.90;;;;;;4964442;28;19936;-85
2021/12/31 10:43:18;;;;;;;;;;;13.80;99.90;;;;;;4951075;28;19936;-82
2021/12/31 10:46:00;;;;;;;;;;;13.80;99.90;;;;;;4946358;28;19957;-84
2021/12/31 10:48:40;;;;;;;;;;;13.80;99.90;;;;;;4964871;28;20296;-84
2021/12/31 10:51:11;;;;;;;;;;;13.80;99.90;;;;;;4950361;28;20258;-83
2021/12/31 10:53:55;;;;;;;;;;;13.80;99.90;;;;;;4965273;28;20105;-84
2021/12/31 10:56:39;;;;;;;;;;;13.90;99.90;;;;;;4977616;28;19949;-84
2021/12/31 10:59:07;;;;;;;;;;;14.00;99.90;;;;;;4966335;28;19926;-84
2021/12/31 11:01:36;;;;;;;;;;;14.00;99.90;;;;;;4983238;28;19933;-83
2021/12/31 11:04:09;;;;;;;;;;;14.00;99.90;;;;;;4957924;28;19933;-84
2021/12/31 11:06:46;;;;;;;;;;;14.10;99.90;;;;;;4983690;28;20457;-83
2021/12/31 11:09:24;;;;;;;;;;;14.10;99.90;;;;;;4982334;28;20238;-85
2021/12/31 11:12:01;;;;;;;;;;;14.40;99.90;;;;;;4964774;28;19934;-84
2021/12/31 11:14:33;;;;;;;;;;;13.40;99.90;;;;;;4962608;28;19937;-83
2021/12/31 11:17:03;;;;;;;;;;;13.60;99.90;;;;;;4952695;28;19930;-83
2021/12/31 11:19:31;;;;;;;;;;;14.30;99.90;;;;;;4954260;28;19936;-85
2021/12/31 11:22:11;;;;;;;;;;;14.60;99.90;;;;;;4980313;28;19957;-83
2021/12/31 11:24:39;;;;;;;;;;;14.40;99.90;;;;;;4961245;28;19937;-85
2021/12/31 11:27:25;;;;;;;;;;;14.40;99.90;;;;;;4976931;28;19941;-85
2021/12/31 11:30:25;;;;;;;;;;;14.30;99.90;;;;;;4977554;28;19941;-85
2021/12/31 11:33:14;;;;;;;;;;;15.10;99.90;;;;;;4945997;28;19926;-84
2021/12/31 11:36:11;;;;;;;;;;;14.40;99.90;;;;;;4978211;28;19937;-83
2021/12/31 11:38:45;;;;;;;;;;;14.50;99.90;;;;;;4947999;28;19926;-83
2021/12/31 11:41:21;;;;;;;;;;;15.20;99.90;;;;;;4964823;28;19930;-85
2021/12/31 11:44:06;;;;;;;;;;;14.60;99.90;;;;;;4979986;28;19933;-84
2021/12/31 11:46:40;;;;;;;;;;;14.60;99.90;;;;;;4947395;28;19930;-85
2021/12/31 11:49:11;;;;;;;;;;;16.10;99.90;;;;;;4962268;28;20303;-85
2021/12/31 11:52:29;;;;;;;;;;;14.80;99.90;;;;;;4968070;28;19940;-85
2021/12/31 11:59:07;;;;;;;;;;;14.90;99.90;;;;;;4961669;28;19949;-84
2021/12/31 12:07:09;;;;;;;;;;;;;;;;;;;;;
2021/12/31 12:10:33;;;;;;;;;;;;;;;;;;;;;
2021/12/31 12:13:30;;;;;;;;;;;14.70;99.90;;;;;;4847700;29;19936;-84
2021/12/31 12:16:07;;;;;;;;;;;14.90;99.90;;;;;;4893444;29;19938;-82
2021/12/31 12:19:46;;;;;;;;;;;15.40;99.90;;;;;;4789839;29;19936;-85
2021/12/31 12:26:12;;;;;;;;;;;15.10;99.90;;;;;;4730203;30;20349;-84
2021/12/31 12:29:58;;;;;;;;;;;15.10;99.90;;;;;;4729659;30;19937;-85
2021/12/31 12:36:00;;;;;;;;;;;15.20;99.90;;;;;;4743199;30;19918;-85
2021/12/31 12:38:33;;;;;;;;;;;15.20;99.90;;;;;;4755173;29;19926;-84
2021/12/31 12:41:03;;;;;;;;;;;15.10;99.90;;;;;;4847321;29;19929;-83
2021/12/31 12:43:35;;;;;;;;;;;14.90;99.90;;;;;;4877097;29;20492;-84
2021/12/31 12:46:07;;;;;;;;;;;15.20;99.90;;;;;;4905680;29;20634;-84
2021/12/31 12:48:39;;;;;;;;;;;15.20;99.90;;;;;;4906263;29;19942;-82
2021/12/31 12:51:11;;;;;;;;;;;15.20;99.90;;;;;;4888790;29;19915;-84
2021/12/31 12:53:42;;;;;;;;;;;15.10;99.90;;;;;;4908645;29;19931;-82
2021/12/31 12:56:15;;;;;;;;;;;15.30;99.90;;;;;;4903998;29;19934;-82
2021/12/31 12:58:54;;;;;;;;;;;15.40;99.90;;;;;;4902849;29;20007;-81
2021/12/31 13:01:36;;;;;;;;;;;15.50;99.90;;;;;;4884790;29;19932;-82
2021/12/31 13:04:06;;;;;;;;;;;15.30;99.90;;;;;;4873737;29;19927;-82
2021/12/31 13:06:35;;;;;;;;;;;15.30;99.90;;;;;;4903687;29;19927;-83
2021/12/31 13:09:07;;;;;;;;;;;15.40;99.90;;;;;;4872420;29;19928;-83
2021/12/31 13:11:40;;;;;;;;;;;15.40;99.90;;;;;;4905871;29;19936;-82
2021/12/31 13:14:14;;;;;;;;;;;15.40;99.90;;;;;;4872765;29;19935;-82
2021/12/31 13:16:48;;;;;;;;;;;15.40;99.90;;;;;;4876525;29;19936;-84
2021/12/31 13:19:44;;;;;;;;;;;15.40;99.90;;;;;;4903184;29;19928;-84
2021/12/31 13:22:33;;;;;;;;;;;15.40;99.90;;;;;;4891076;29;19932;-82
2021/12/31 13:25:02;;;;;;;;;;;15.40;99.90;;;;;;4902317;29;19943;-83
2021/12/31 13:27:39;;;;;;;;;;;15.30;99.90;;;;;;4901542;29;20439;-83
2021/12/31 13:30:14;;;;;;;;;;;15.50;99.90;;;;;;4885917;29;19935;-83
2021/12/31 13:32:47;;;;;;;;;;;15.50;99.90;;;;;;4886786;29;20107;-84
2021/12/31 13:35:40;;;;;;;;;;;15.30;99.90;;;;;;4902938;29;19942;-83
2021/12/31 13:38:46;;;;;;;;;;;15.30;99.90;;;;;;4901890;29;19927;-85
2021/12/31 13:41:20;;;;;;;;;;;15.30;99.90;;;;;;4887080;29;20337;-84
2021/12/31 13:44:13;;;;;;;;;;;15.40;99.90;;;;;;4901488;29;20242;-83
2021/12/31 13:46:49;;;;;;;;;;;15.40;99.90;;;;;;4905920;29;19943;-84
2021/12/31 13:53:47;;;;;;;;;;;15.30;99.90;;;;;;4832091;29;20196;-87
2021/12/31 13:56:43;;;;;;;;;;;;;;;;;;;;;
2021/12/31 13:59:26;;;;;;;;;;;15.60;99.90;;;;;;4890860;29;19938;-85
2021/12/31 14:02:18;;;;;;;;;;;15.40;99.90;;;;;;4889414;29;19936;-84
2021/12/31 14:04:53;;;;;;;;;;;16.30;99.90;;;;;;4890196;29;19916;-83
2021/12/31 14:07:41;;;;;;;;;;;15.30;99.90;;;;;;4905291;29;19931;-82
2021/12/31 14:10:15;;;;;;;;;;;15.20;99.90;;;;;;4905747;29;19942;-83
2021/12/31 14:12:59;;;;;;;;;;;15.20;99.90;;;;;;4872043;29;19975;-84
2021/12/31 14:15:29;;;;;;;;;;;15.20;99.90;;;;;;4885031;29;19932;-84
2021/12/31 14:18:03;;;;;;;;;;;15.30;99.90;;;;;;4884872;29;20299;-84
2021/12/31 14:21:03;;;;;;;;;;;15.20;99.90;;;;;;4885269;29;20027;-86
2021/12/31 14:23:54;;;;;;;;;;;15.30;99.90;;;;;;4885641;29;20376;-84
2021/12/31 14:26:34;;;;;;;;;;;15.10;99.90;;;;;;4885513;29;19935;-85
2021/12/31 14:29:05;;;;;;;;;;;15.10;99.90;;;;;;4899643;29;19939;-83
2021/12/31 14:31:32;;;;;;;;;;;15.10;99.90;;;;;;4900867;29;19942;-82
2021/12/31 14:34:00;;;;;;;;;;;15.00;99.90;;;;;;4884404;29;19927;-83
2021/12/31 14:37:07;;;;;;;;;;;15.10;99.90;;;;;;4893386;29;19927;-81
2021/12/31 14:39:57;;;;;;;;;;;15.10;99.90;;;;;;4888607;29;19928;-82
2021/12/31 14:42:29;;;;;;;;;;;15.10;99.90;;;;;;4870937;29;19931;-85
2021/12/31 14:45:05;;;;;;;;;;;15.00;99.90;;;;;;4901032;29;19942;-84
2021/12/31 14:47:40;;;;;;;;;;;15.00;99.90;;;;;;4883178;29;19935;-84
2021/12/31 14:50:09;;;;;;;;;;;15.00;99.90;;;;;;4897229;29;19932;-83
2021/12/31 14:52:41;;;;;;;;;;;15.00;99.90;;;;;;4883431;29;19931;-82
2021/12/31 14:55:10;;;;;;;;;;;15.00;99.90;;;;;;4899507;29;19927;-82
2021/12/31 14:57:40;;;;;;;;;;;15.00;99.90;;;;;;4898134;29;19932;-84
2021/12/31 15:00:13;;;;;;;;;;;14.90;99.90;;;;;;4886212;29;19942;-83
2021/12/31 15:02:43;;;;;;;;;;;14.80;99.90;;;;;;4901739;29;20692;-86
2021/12/31 15:05:14;;;;;;;;;;;14.90;99.90;;;;;;4910578;29;19935;-84
2021/12/31 15:07:45;;;;;;;;;;;14.90;99.90;;;;;;4960842;28;19930;-84
2021/12/31 15:10:20;;;;;;;;;;;14.80;99.90;;;;;;4959433;29;19935;-83
2021/12/31 15:12:52;;;;;;;;;;;14.80;99.90;;;;;;4972639;28;19926;-83
2021/12/31 15:15:20;;;;;;;;;;;14.60;99.90;;;;;;4954668;28;19930;-87
2021/12/31 15:17:53;;;;;;;;;;;14.40;99.90;;;;;;4957723;28;19930;-84
2021/12/31 15:20:21;;;;;;;;;;;14.80;99.90;;;;;;4961337;28;19937;-83
2021/12/31 15:23:05;;;;;;;;;;;14.80;99.90;;;;;;4960054;28;20423;-83
2021/12/31 15:25:42;;;;;;;;;;;15.00;99.90;;;;;;4963727;28;19953;-82